Mesa, Washington
Current Conditions -  °F | °C
As of 11:53 AM on Friday 28 Nov 2014 (Local Time) from KPSC Reporting Station
Few Clouds Few Clouds  
Wind Chill: 62°   Ceiling: Unl
Heat Index: 62°   Visibility: 10mi
Dew Point: 43°   Wind: 17mph
Humidity: 50%   Direction: 200°SSW
Pressure: 29.47"   Gusts: 22mph
Location:  46.58°N, 119.01°W
Report Text: KPSC 281953Z 20015G19KT 10SM FEW085 17/06 A2947 RMK AO2 SLP976 T01670061
Loading
Personal Weather Stations






























Interactive Weather Map New forecast layout! Learn more

10-Day Weather Forecast

Advertisements
Track Severe Weather on mobile